Time;durP1;ratioP1;P1;durP2;ratioP2;P2;SDS_P1;SDS_P2;PMS_P1;PMS_P2;Temp;Humidity;BMP_temperature;BMP_pressure;BME280_temperature;BME280_humidity;BME280_pressure;Samples;Min_cycle;Max_cycle;Signal;HPM_P1;HPM_P2
2023/10/26 00:00:17;;;;;;;9.13;1.00;;;;;;;18.31;67.12;98610.78;5065228;28;20178;-62
2023/10/26 00:02:43;;;;;;;1.90;0.80;;;;;;;18.29;66.99;98602.63;5068122;28;20171;-61
2023/10/26 00:05:08;;;;;;;2.33;0.90;;;;;;;18.29;67.34;98610.34;5049248;28;20339;-62
2023/10/26 00:07:34;;;;;;;2.43;0.80;;;;;;;18.28;67.20;98612.41;5044681;28;20507;-61
2023/10/26 00:10:00;;;;;;;3.07;0.90;;;;;;;18.28;67.29;98606.72;5048629;28;20204;-62
2023/10/26 00:12:25;;;;;;;1.90;0.70;;;;;;;18.27;67.44;98602.19;5059110;28;20499;-62
2023/10/26 00:14:51;;;;;;;3.23;0.90;;;;;;;18.29;67.17;98602.63;5068951;28;20203;-62
2023/10/26 00:17:16;;;;;;;1.70;0.63;;;;;;;18.28;67.25;98600.16;5070437;28;20171;-61
2023/10/26 00:19:42;;;;;;;2.50;0.90;;;;;;;18.28;67.29;98594.47;5050033;28;20241;-61
2023/10/26 00:22:07;;;;;;;1.70;0.80;;;;;;;18.27;67.51;98599.34;5049454;28;20167;-61
2023/10/26 00:24:33;;;;;;;2.40;0.70;;;;;;;18.29;67.39;98602.63;5067631;28;20631;-61
2023/10/26 00:27:00;;;;;;;2.63;0.90;;;;;;;18.28;67.21;98592.44;5059682;28;20672;-61
2023/10/26 00:29:26;;;;;;;2.47;0.70;;;;;;;18.27;67.38;98587.91;5063590;28;20471;-61
2023/10/26 00:31:51;;;;;;;2.90;0.70;;;;;;;18.28;67.18;98588.75;5069429;28;20175;-62
2023/10/26 00:34:16;;;;;;;2.27;0.70;;;;;;;18.29;67.48;98596.06;5068823;28;20186;-61
2023/10/26 00:36:43;;;;;;;1.63;0.60;;;;;;;18.28;67.30;98594.47;5062408;28;20191;-61
2023/10/26 00:39:09;;;;;;;2.47;0.83;;;;;;;18.26;67.38;98597.72;5049393;28;20257;-62
2023/10/26 00:41:35;;;;;;;2.37;0.80;;;;;;;18.27;67.40;98596.50;5059891;28;20445;-61
2023/10/26 00:44:00;;;;;;;2.60;0.90;;;;;;;18.26;67.47;98583.44;5068351;28;20183;-61
2023/10/26 00:46:25;;;;;;;2.33;0.70;;;;;;;18.26;67.36;98592.00;5065017;28;20196;-61
2023/10/26 00:48:51;;;;;;;2.40;0.73;;;;;;;18.27;67.28;98599.34;5069026;28;20203;-61
2023/10/26 00:51:16;;;;;;;3.13;1.07;;;;;;;18.25;67.46;98596.09;5069238;28;20163;-61
2023/10/26 00:53:43;;;;;;;3.07;0.63;;;;;;;18.24;67.44;98600.19;5068150;28;20187;-61
2023/10/26 00:56:09;;;;;;;2.90;0.80;;;;;;;18.24;67.63;98603.06;5068405;28;20191;-61
2023/10/26 00:58:35;;;;;;;2.73;1.00;;;;;;;18.24;67.66;98600.19;5050723;28;20438;-62
2023/10/26 01:01:00;;;;;;;2.40;0.80;;;;;;;18.26;67.75;98599.78;5050160;28;20445;-61
2023/10/26 01:03:27;;;;;;;2.80;1.00;;;;;;;18.26;67.59;98596.94;5050376;28;20649;-62
2023/10/26 01:05:52;;;;;;;1.60;0.80;;;;;;;18.23;67.85;98592.88;5069175;28;20270;-61
2023/10/26 01:08:18;;;;;;;1.30;0.60;;;;;;;18.25;67.73;98598.13;5068377;28;20444;-61
2023/10/26 01:10:44;;;;;;;2.60;1.00;;;;;;;18.22;67.58;98591.22;5069173;28;20215;-61
2023/10/26 01:13:09;;;;;;;1.77;0.80;;;;;;;18.22;67.55;98596.94;5069187;28;20179;-61
2023/10/26 01:15:35;;;;;;;2.90;0.73;;;;;;;18.23;67.49;98587.16;5033688;28;20195;-61
2023/10/26 01:18:00;;;;;;;2.37;0.57;;;;;;;18.22;67.71;98594.09;5058162;28;20198;-62
2023/10/26 01:20:26;;;;;;;1.50;0.80;;;;;;;18.24;67.53;98590.81;5063314;28;20474;-62
2023/10/26 01:22:51;;;;;;;2.30;0.70;;;;;;;18.23;67.39;98598.59;5068135;28;20178;-61
2023/10/26 01:25:17;;;;;;;1.70;0.77;;;;;;;18.23;67.75;98592.03;5068380;28;20175;-61
2023/10/26 01:27:42;;;;;;;2.20;0.87;;;;;;;18.21;67.82;98592.47;5043328;28;20186;-62
2023/10/26 01:30:08;;;;;;;1.77;0.70;;;;;;;18.23;67.51;98597.75;5057763;28;20207;-62
2023/10/26 01:32:34;;;;;;;1.97;0.70;;;;;;;18.22;67.76;98596.16;5067956;28;20261;-61
2023/10/26 01:34:59;;;;;;;2.47;0.70;;;;;;;18.23;67.69;98604.31;5068423;28;21318;-61
2023/10/26 01:37:25;;;;;;;1.60;0.77;;;;;;;18.21;67.69;98592.47;5065443;28;20689;-61
2023/10/26 01:39:50;;;;;;;1.50;0.67;;;;;;;18.23;67.37;98592.88;5050199;28;20756;-61
2023/10/26 01:42:15;;;;;;;2.33;0.90;;;;;;;18.22;67.87;98594.09;5068573;28;20622;-61
2023/10/26 01:44:43;;;;;;;1.60;0.57;;;;;;;18.21;67.79;98586.75;5068485;28;20809;-61
2023/10/26 01:47:10;;;;;;;3.60;0.77;;;;;;;18.21;67.92;98585.97;5068396;28;20179;-61
2023/10/26 01:49:35;;;;;;;1.63;0.77;;;;;;;18.21;67.73;98583.09;5066482;28;20504;-61
2023/10/26 01:52:01;;;;;;;1.90;0.80;;;;;;;18.19;67.86;98580.66;5068624;28;20885;-61
2023/10/26 01:54:26;;;;;;;1.60;0.73;;;;;;;18.20;67.83;98581.44;5067258;28;20963;-61
2023/10/26 01:56:52;;;;;;;2.30;0.70;;;;;;;18.19;67.95;98580.66;5067301;28;20543;-61
2023/10/26 01:59:17;;;;;;;2.40;0.70;;;;;;;18.20;67.98;98576.56;5068931;28;20202;-62
2023/10/26 02:01:42;;;;;;;2.43;0.83;;;;;;;18.19;67.86;98574.13;5052877;28;20638;-62
2023/10/26 02:04:08;;;;;;;1.90;0.67;;;;;;;18.19;67.97;98577.81;5070329;28;20182;-61
2023/10/26 02:06:33;;;;;;;2.70;1.17;;;;;;;18.19;67.86;98579.84;5067781;28;20210;-61
2023/10/26 02:08:59;;;;;;;2.53;0.80;;;;;;;18.20;67.81;98581.44;5071167;28;20203;-61
2023/10/26 02:11:24;;;;;;;4.60;0.90;;;;;;;18.19;67.94;98583.50;5070982;28;20171;-61
2023/10/26 02:13:50;;;;;;;1.93;0.70;;;;;;;18.21;67.68;98583.09;5069110;28;20240;-61
2023/10/26 02:16:17;;;;;;;2.53;0.83;;;;;;;18.19;68.12;98583.50;5071176;28;20581;-61
2023/10/26 02:18:43;;;;;;;1.80;0.60;;;;;;;18.17;67.74;98580.25;5071134;28;20195;-61
2023/10/26 02:21:08;;;;;;;3.50;0.70;;;;;;;18.18;67.91;98581.91;5070430;28;20477;-61
2023/10/26 02:23:34;;;;;;;3.07;1.00;;;;;;;18.18;67.78;98581.06;5071010;28;20651;-61
2023/10/26 02:26:01;;;;;;;1.53;0.60;;;;;;;18.16;67.87;98581.50;5071060;28;20186;-61
2023/10/26 02:28:26;;;;;;;2.50;0.80;;;;;;;18.17;67.71;98577.41;5070024;28;20253;-61
2023/10/26 02:30:52;;;;;;;1.87;0.80;;;;;;;18.16;67.86;98581.50;5071374;28;20572;-61
2023/10/26 02:33:17;;;;;;;1.53;0.80;;;;;;;18.18;67.82;98578.22;5052290;28;20194;-62
2023/10/26 02:35:43;;;;;;;2.50;0.80;;;;;;;18.17;67.68;98571.69;5070907;28;20187;-61
2023/10/26 02:38:08;;;;;;;1.80;0.60;;;;;;;18.17;67.85;98573.75;5053468;28;20179;-61
2023/10/26 02:40:37;;;;;;;1.30;0.60;;;;;;;18.15;68.09;98574.16;5071253;28;20175;-62
2023/10/26 02:43:03;;;;;;;1.80;0.73;;;;;;;18.17;67.95;98565.97;5070733;28;20958;-61
2023/10/26 02:45:29;;;;;;;2.00;0.60;;;;;;;18.16;67.86;98563.56;5070695;28;20433;-61
2023/10/26 02:47:55;;;;;;;2.37;0.90;;;;;;;18.16;67.92;98574.97;5070448;28;20444;-61
2023/10/26 02:50:20;;;;;;;2.43;0.63;;;;;;;18.16;67.99;98564.34;5070877;28;20211;-62
2023/10/26 02:52:45;;;;;;;1.40;0.60;;;;;;;18.16;67.67;98570.06;5067107;28;20179;-61
2023/10/26 02:55:11;;;;;;;1.80;0.70;;;;;;;18.16;67.73;98572.13;5069996;28;20179;-61
2023/10/26 02:57:36;;;;;;;1.53;0.60;;;;;;;18.15;67.97;98554.16;5066276;28;20191;-61
2023/10/26 03:00:02;;;;;;;1.73;0.60;;;;;;;18.16;67.88;98561.50;5068109;28;20167;-62
2023/10/26 03:02:28;;;;;;;2.63;0.80;;;;;;;18.15;68.28;98559.06;5067847;28;20210;-61
2023/10/26 03:04:53;;;;;;;5.80;0.87;;;;;;;18.17;67.58;98545.97;5068222;28;20440;-61
2023/10/26 03:07:24;;;;;;;3.20;0.70;;;;;;;18.15;67.70;98557.03;5068882;28;20190;-61
2023/10/26 03:09:50;;;;;;;1.50;0.60;;;;;;;18.14;67.85;98561.13;5068645;28;20213;-61
2023/10/26 03:12:16;;;;;;;3.47;0.67;;;;;;;18.14;68.09;98558.25;5070071;28;20426;-61
2023/10/26 03:14:42;;;;;;;1.50;0.53;;;;;;;18.13;67.92;98553.78;5052049;28;20199;-61
2023/10/26 03:17:07;;;;;;;1.77;0.60;;;;;;;18.15;67.87;98562.72;5068994;28;20798;-61
2023/10/26 03:19:33;;;;;;;2.23;0.60;;;;;;;18.16;67.56;98557.84;5058644;28;20550;-62
2023/10/26 03:21:58;;;;;;;1.93;0.70;;;;;;;18.14;68.03;98555.41;5070635;28;20175;-62
2023/10/26 03:24:24;;;;;;;1.60;0.60;;;;;;;18.12;67.97;98545.63;5067691;28;20273;-62
2023/10/26 03:26:49;;;;;;;2.57;0.60;;;;;;;18.11;67.96;98547.66;5050547;28;20171;-62
2023/10/26 03:29:15;;;;;;;1.60;0.80;;;;;;;18.12;67.88;98560.72;5069927;28;20203;-61
2023/10/26 03:31:41;;;;;;;2.03;0.80;;;;;;;18.13;67.85;98553.78;5070473;28;20182;-62
2023/10/26 03:34:07;;;;;;;1.30;0.57;;;;;;;18.14;67.98;98548.88;5051197;28;20193;-61
2023/10/26 03:36:32;;;;;;;1.60;0.60;;;;;;;18.12;68.13;98552.13;5070362;28;20422;-62
2023/10/26 03:38:58;;;;;;;1.90;0.70;;;;;;;18.12;68.01;98549.28;5069925;28;20179;-61
2023/10/26 03:41:23;;;;;;;2.27;0.70;;;;;;;18.14;67.60;98535.41;5052545;28;20167;-62
2023/10/26 03:43:50;;;;;;;1.77;0.77;;;;;;;18.13;67.69;98533.78;5063252;28;20182;-61
2023/10/26 03:46:15;;;;;;;1.40;0.60;;;;;;;18.13;67.78;98530.13;5069857;28;21073;-61
2023/10/26 03:48:41;;;;;;;1.90;0.70;;;;;;;18.12;67.85;98537.06;5069515;28;20434;-61
2023/10/26 03:51:06;;;;;;;1.50;0.70;;;;;;;18.13;67.69;98535.81;5067894;28;20280;-61
2023/10/26 03:53:31;;;;;;;1.37;0.60;;;;;;;18.11;68.19;98526.88;5055555;28;20187;-61
2023/10/26 03:55:57;;;;;;;1.67;0.77;;;;;;;18.12;67.79;98531.34;5068601;28;20179;-61
2023/10/26 03:58:23;;;;;;;1.93;0.50;;;;;;;18.11;68.04;98539.09;5067996;28;20206;-62
2023/10/26 04:00:48;;;;;;;1.60;0.60;;;;;;;18.12;68.22;98534.22;5067332;28;20191;-61
2023/10/26 04:03:14;;;;;;;3.53;0.50;;;;;;;18.12;67.82;98532.16;5068479;28;20186;-61
2023/10/26 04:05:39;;;;;;;2.87;0.77;;;;;;;18.13;67.89;98538.69;5069983;28;20525;-62
2023/10/26 04:08:06;;;;;;;1.73;0.70;;;;;;;18.11;68.07;98526.88;5069608;28;20171;-62
2023/10/26 04:10:32;;;;;;;1.60;0.60;;;;;;;18.11;68.06;98530.53;5068493;28;20574;-61
2023/10/26 04:12:57;;;;;;;1.90;0.70;;;;;;;18.14;67.72;98528.88;5069736;28;20432;-61
2023/10/26 04:15:22;;;;;;;1.37;0.70;;;;;;;18.12;67.54;98529.28;5069975;28;20233;-61
2023/10/26 04:17:48;;;;;;;1.90;0.83;;;;;;;18.13;67.74;98530.94;5063492;28;20183;-61
2023/10/26 04:20:13;;;;;;;1.63;0.70;;;;;;;18.12;68.06;98534.22;5068677;28;20226;-61
2023/10/26 04:22:39;;;;;;;1.60;0.60;;;;;;;18.12;67.76;98520.72;5069589;28;20194;-62
2023/10/26 04:25:05;;;;;;;1.30;0.53;;;;;;;18.11;68.16;98527.69;5069938;28;20232;-62
2023/10/26 04:27:33;;;;;;;2.10;0.80;;;;;;;18.11;68.13;98527.69;5066083;28;20179;-61
2023/10/26 04:29:58;;;;;;;1.50;0.73;;;;;;;18.12;67.78;98522.78;5060433;28;20241;-61
2023/10/26 04:32:24;;;;;;;1.80;0.60;;;;;;;18.12;67.70;98522.78;5068776;28;20460;-61
2023/10/26 04:34:49;;;;;;;1.40;0.50;;;;;;;18.11;67.71;98527.69;5069367;28;20182;-61
2023/10/26 04:37:15;;;;;;;1.50;0.53;;;;;;;18.13;67.81;98525.22;5068828;28;20202;-61
2023/10/26 04:39:43;;;;;;;1.90;0.80;;;;;;;18.10;67.96;98520.34;5049199;28;20236;-61
2023/10/26 04:42:12;;;;;;;2.37;0.70;;;;;;;18.12;68.12;98528.50;5033365;28;20211;-61
2023/10/26 04:44:38;;;;;;;1.70;0.60;;;;;;;18.11;67.70;98521.97;5067390;28;20432;-61
2023/10/26 04:47:03;;;;;;;1.50;0.60;;;;;;;18.12;67.71;98525.66;5067943;28;20821;-61
2023/10/26 04:49:29;;;;;;;1.40;0.57;;;;;;;18.11;67.94;98516.25;5065623;28;20203;-62
2023/10/26 04:51:54;;;;;;;1.90;0.60;;;;;;;18.11;68.08;98526.88;5068230;28;20456;-62
2023/10/26 04:54:20;;;;;;;1.60;0.60;;;;;;;18.11;67.74;98521.97;5068055;28;20556;-62
2023/10/26 04:56:45;;;;;;;2.07;0.60;;;;;;;18.12;67.61;98512.16;5067683;28;20518;-61
2023/10/26 04:59:12;;;;;;;1.30;0.57;;;;;;;18.12;67.80;98520.72;5066599;28;20182;-61
2023/10/26 05:01:38;;;;;;;1.50;0.60;;;;;;;18.11;67.95;98516.25;5067673;28;20190;-62
2023/10/26 05:04:03;;;;;;;1.40;0.57;;;;;;;18.12;67.97;98509.31;5067589;28;20788;-62
2023/10/26 05:06:29;;;;;;;1.13;0.40;;;;;;;18.12;68.00;98495.03;5049162;28;20198;-61
2023/10/26 05:08:54;;;;;;;1.70;0.60;;;;;;;18.12;67.70;98494.22;5067688;28;20187;-62
2023/10/26 05:11:20;;;;;;;1.60;0.53;;;;;;;18.10;67.75;98482.41;5064801;28;20186;-61
2023/10/26 05:13:45;;;;;;;1.60;0.50;;;;;;;18.14;67.82;98498.28;5063964;28;20183;-62
2023/10/26 05:16:11;;;;;;;1.40;0.50;;;;;;;18.12;68.00;98503.59;5051173;28;20895;-61
2023/10/26 05:18:37;;;;;;;1.60;0.70;;;;;;;18.12;67.68;98497.88;5049722;28;20244;-61
2023/10/26 05:21:02;;;;;;;1.40;0.63;;;;;;;18.12;68.00;98500.72;5068639;28;20246;-61
2023/10/26 05:23:28;;;;;;;1.60;0.60;;;;;;;18.11;67.96;98487.69;5069021;28;20182;-62
2023/10/26 05:25:53;;;;;;;1.40;0.50;;;;;;;18.12;67.97;98495.03;5049966;28;20183;-61
2023/10/26 05:28:19;;;;;;;1.40;0.70;;;;;;;18.10;67.91;98493.81;5067451;28;20614;-62
2023/10/26 05:30:44;;;;;;;1.63;0.63;;;;;;;18.13;68.08;98485.25;5050844;28;20210;-62
2023/10/26 05:33:11;;;;;;;2.33;0.77;;;;;;;18.12;67.81;98477.09;5070982;28;20232;-61
2023/10/26 05:35:36;;;;;;;1.43;0.50;;;;;;;18.11;67.80;98476.28;5072019;28;20182;-61
2023/10/26 05:38:03;;;;;;;1.40;0.60;;;;;;;18.13;68.02;98468.13;5071492;28;20834;-62
2023/10/26 05:40:30;;;;;;;1.77;0.70;;;;;;;18.13;68.19;98456.69;5071789;28;20245;-61
2023/10/26 05:42:55;;;;;;;2.23;0.90;;;;;;;18.12;68.08;98465.66;5070256;28;20440;-61
2023/10/26 05:45:21;;;;;;;4.80;0.60;;;;;;;18.11;67.64;98459.13;5070629;28;20436;-61
2023/10/26 05:47:51;;;;;;;1.30;0.50;;;;;;;18.11;67.86;98447.72;5058647;28;20176;-61
2023/10/26 05:50:16;;;;;;;2.30;0.63;;;;;;;18.13;67.88;98444.44;5065500;28;20235;-61
2023/10/26 05:52:42;;;;;;;3.10;0.67;;;;;;;18.11;67.64;98439.16;5070194;28;20437;-61
2023/10/26 05:55:08;;;;;;;2.40;0.60;;;;;;;18.11;67.83;98444.84;5071594;28;20175;-61
2023/10/26 05:57:33;;;;;;;1.60;0.60;;;;;;;18.12;67.58;98443.63;5071498;28;20179;-61
2023/10/26 05:59:59;;;;;;;1.30;0.53;;;;;;;18.11;67.73;98459.13;5072363;28;20183;-61
2023/10/26 06:02:24;;;;;;;1.60;0.70;;;;;;;18.14;67.68;98454.63;5051875;28;20244;-61
2023/10/26 06:04:49;;;;;;;1.57;0.67;;;;;;;18.12;68.03;98443.63;5071399;28;20182;-61
2023/10/26 06:07:15;;;;;;;1.70;0.70;;;;;;;18.10;68.00;98433.84;5071420;28;20259;-61
2023/10/26 06:09:40;;;;;;;1.40;0.60;;;;;;;18.13;67.81;98438.72;5068064;28;20203;-62
2023/10/26 06:12:07;;;;;;;2.30;0.60;;;;;;;18.11;67.90;98433.44;5051568;28;20180;-62
2023/10/26 06:14:32;;;;;;;1.50;0.70;;;;;;;18.13;67.74;98436.69;5068232;28;20207;-61
2023/10/26 06:16:58;;;;;;;4.50;0.70;;;;;;;18.13;67.64;98433.84;5064802;28;20436;-61
2023/10/26 06:19:23;;;;;;;2.80;0.50;;;;;;;18.12;67.81;98448.53;5059118;28;20656;-61
2023/10/26 06:21:49;;;;;;;1.50;0.53;;;;;;;18.13;67.77;98442.41;5066760;28;20345;-62
2023/10/26 06:24:14;;;;;;;3.03;0.60;;;;;;;18.13;68.05;98438.72;5071694;28;20292;-61
2023/10/26 06:26:39;;;;;;;1.50;0.70;;;;;;;18.11;67.74;98456.28;5057758;28;20297;-61
2023/10/26 06:29:05;;;;;;;2.33;0.80;;;;;;;18.12;66.78;98455.03;5039136;28;20179;-60
2023/10/26 06:31:31;;;;;;;1.80;0.90;;;;;;;18.13;67.79;98464.44;5057681;28;20194;-62
2023/10/26 06:33:56;;;;;;;7.93;1.43;;;;;;;18.23;71.04;98464.34;5066116;28;21143;-63
2023/10/26 06:36:22;;;;;;;5.97;2.40;;;;;;;18.54;73.33;98454.63;5067848;28;20195;-63
2023/10/26 06:38:47;;;;;;;11.13;2.60;;;;;;;18.47;73.17;98463.28;5067649;28;20187;-63
2023/10/26 06:41:13;;;;;;;8.73;1.87;;;;;;;18.34;72.84;98461.38;5046877;28;20881;-63
2023/10/26 06:43:38;;;;;;;5.83;1.30;;;;;;;18.31;70.35;98465.06;5065021;28;20207;-63
2023/10/26 06:46:04;;;;;;;5.47;1.27;;;;;;;18.37;70.89;98458.47;5064905;28;20183;-62
2023/10/26 06:48:29;;;;;;;6.93;1.30;;;;;;;18.47;70.13;98449.00;5067182;28;20193;-63
2023/10/26 06:51:02;;;;;;;4.33;1.23;;;;;;;18.50;70.33;98450.19;5068699;28;20199;-65
2023/10/26 06:53:28;;;;;;;4.50;1.20;;;;;;;18.57;70.29;98442.34;5069589;28;20261;-63
2023/10/26 06:55:54;;;;;;;3.83;1.60;;;;;;;18.52;69.12;98442.81;5068623;28;20448;-63
2023/10/26 06:58:19;;;;;;;8.73;1.63;;;;;;;18.52;69.33;98442.81;5046546;28;20438;-64
2023/10/26 07:00:45;;;;;;;9.23;1.50;;;;;;;18.51;68.65;98446.91;5057590;28;20183;-63
2023/10/26 07:03:10;;;;;;;11.43;1.47;;;;;;;18.54;69.07;98443.22;5048548;28;20568;-64
2023/10/26 07:05:36;;;;;;;6.83;1.37;;;;;;;18.58;69.21;98443.97;5068175;28;20187;-63
2023/10/26 07:08:01;;;;;;;4.90;1.60;;;;;;;18.61;68.58;98437.41;5060438;28;20179;-63
2023/10/26 07:10:27;;;;;;;3.97;1.40;;;;;;;18.59;68.78;98431.31;5068532;28;20210;-64
2023/10/26 07:12:52;;;;;;;4.50;1.27;;;;;;;18.61;68.41;98439.47;5067847;28;20206;-63
2023/10/26 07:15:18;;;;;;;6.53;1.50;;;;;;;18.60;68.12;98435.78;5067287;28;20211;-63
2023/10/26 07:17:43;;;;;;;6.77;1.90;;;;;;;18.58;67.56;98426.84;5054848;28;20184;-63
2023/10/26 07:20:09;;;;;;;4.50;1.37;;;;;;;18.71;68.36;98439.31;5066118;28;20223;-62
2023/10/26 07:22:35;;;;;;;11.60;2.33;;;;;;;18.74;68.06;98426.22;5065142;28;20552;-63
2023/10/26 07:25:02;;;;;;;4.23;1.50;;;;;;;18.74;68.54;98424.19;5062502;28;20441;-63
2023/10/26 07:27:28;;;;;;;6.20;1.63;;;;;;;18.73;67.50;98419.72;5067836;28;20261;-63
2023/10/26 07:29:53;;;;;;;5.13;1.67;;;;;;;18.71;67.92;98422.16;5068298;28;20536;-63
2023/10/26 07:32:19;;;;;;;7.30;1.57;;;;;;;18.79;68.23;98409.41;5066427;28;20259;-62
2023/10/26 07:34:44;;;;;;;7.23;1.30;;;;;;;18.71;67.64;98418.50;5062814;28;20186;-62
2023/10/26 07:37:10;;;;;;;5.87;1.17;;;;;;;18.78;67.70;98418.41;5049266;28;20164;-64
2023/10/26 07:39:35;;;;;;;8.97;1.57;;;;;;;18.81;67.55;98424.06;5052086;28;20233;-63
2023/10/26 07:42:01;;;;;;;6.07;1.37;;;;;;;18.83;67.16;98427.34;5057174;28;20273;-63
2023/10/26 07:44:27;;;;;;;8.57;1.67;;;;;;;18.77;66.61;98419.66;5067388;28;20260;-63
2023/10/26 07:46:52;;;;;;;5.73;1.70;;;;;;;18.71;67.19;98421.38;5063532;28;20175;-63
2023/10/26 07:49:18;;;;;;;6.67;1.97;;;;;;;18.68;66.88;98414.47;5054530;28;20682;-63
2023/10/26 07:51:43;;;;;;;4.17;1.30;;;;;;;18.64;67.13;98419.41;5065546;28;20601;-63
2023/10/26 07:54:09;;;;;;;9.20;1.90;;;;;;;18.60;66.85;98423.53;5058050;28;20175;-63
2023/10/26 07:56:36;;;;;;;6.23;1.70;;;;;;;18.58;67.04;98412.56;5063468;28;20210;-63
2023/10/26 07:59:01;;;;;;;6.13;1.60;;;;;;;18.60;66.62;98410.06;5036078;28;20202;-63
2023/10/26 08:01:27;;;;;;;6.20;1.53;;;;;;;18.59;66.15;98405.59;5062580;28;20445;-63
2023/10/26 08:03:52;;;;;;;6.60;1.70;;;;;;;18.64;65.71;98413.69;5067453;28;20254;-62
2023/10/26 08:06:18;;;;;;;5.83;1.33;;;;;;;18.65;65.55;98409.59;5069145;28;20534;-63
2023/10/26 08:08:43;;;;;;;8.50;1.70;;;;;;;18.59;65.83;98399.88;5069266;28;20211;-63
2023/10/26 08:11:13;;;;;;;5.07;1.80;;;;;;;18.53;65.99;98389.34;5068528;28;20211;-63
2023/10/26 08:13:38;;;;;;;6.30;2.10;;;;;;;18.53;66.10;98400.75;5069124;28;20189;-63
2023/10/26 08:16:04;;;;;;;6.63;1.90;;;;;;;18.48;65.75;98404.91;5068501;28;20453;-63
2023/10/26 08:18:30;;;;;;;5.83;1.50;;;;;;;18.57;65.66;98407.25;5068719;28;20182;-63
2023/10/26 08:20:55;;;;;;;17.90;2.90;;;;;;;18.55;65.97;98410.53;5068977;28;20215;-63
2023/10/26 08:23:21;;;;;;;9.13;1.93;;;;;;;18.51;66.46;98409.75;5068357;28;20209;-63
2023/10/26 08:25:47;;;;;;;5.33;1.67;;;;;;;18.51;67.03;98403.25;5064198;28;20683;-63
2023/10/26 08:28:13;;;;;;;13.10;1.90;;;;;;;18.45;66.96;98402.91;5051538;28;20179;-63
2023/10/26 08:30:39;;;;;;;9.53;1.97;;;;;;;18.42;67.05;98415.16;5048566;28;20561;-63
2023/10/26 08:33:04;;;;;;;4.40;1.60;;;;;;;18.42;67.69;98412.31;5064866;28;20444;-63
2023/10/26 08:35:30;;;;;;;4.70;1.47;;;;;;;18.42;67.40;98426.59;5056124;28;20187;-63
2023/10/26 08:37:56;;;;;;;10.40;2.23;;;;;;;18.49;66.81;98435.09;5048533;28;20778;-63
2023/10/26 08:40:22;;;;;;;4.93;1.37;;;;;;;18.51;66.88;98438.34;5048326;28;20421;-63
2023/10/26 08:42:47;;;;;;;16.30;1.93;;;;;;;18.54;66.94;98426.06;5058797;28;20183;-63
2023/10/26 08:45:23;;;;;;;8.93;1.57;;;;;;;18.53;66.83;98429.34;5069474;28;20179;-63
2023/10/26 08:47:49;;;;;;;4.40;1.37;;;;;;;18.54;66.62;98428.91;5068779;28;20181;-64
2023/10/26 08:50:15;;;;;;;12.67;1.83;;;;;;;18.54;67.03;98431.78;5069021;28;20541;-63
2023/10/26 08:52:41;;;;;;;8.03;1.63;;;;;;;18.49;67.02;98437.97;5068719;28;20510;-63
2023/10/26 08:55:07;;;;;;;10.27;1.60;;;;;;;18.48;67.61;98447.78;5069220;28;20226;-63
2023/10/26 08:57:33;;;;;;;11.47;1.70;;;;;;;18.53;67.28;98441.59;5051371;28;20421;-63
2023/10/26 08:59:59;;;;;;;7.43;1.60;;;;;;;18.50;67.18;98445.28;5051440;28;20889;-63
2023/10/26 09:02:25;;;;;;;5.80;1.50;;;;;;;18.51;67.67;98440.41;5067968;28;20241;-63
2023/10/26 09:05:03;;;;;;;2.67;1.30;;;;;;;18.51;67.61;98451.81;5068992;28;20425;-63
2023/10/26 09:07:28;;;;;;;7.30;1.90;;;;;;;18.49;67.62;98451.44;5050852;28;20201;-63
2023/10/26 09:09:53;;;;;;;6.30;1.80;;;;;;;18.45;67.84;98451.47;5073001;28;20823;-63
2023/10/26 09:12:19;;;;;;;12.00;2.07;;;;;;;18.46;67.89;98464.50;5073425;28;20190;-63
2023/10/26 09:15:20;;;;;;;6.73;1.47;;;;;;;18.45;68.07;98473.50;5072507;28;20219;-63
2023/10/26 09:17:45;;;;;;;5.40;1.30;;;;;;;18.45;68.14;98485.75;4971155;28;20239;-63
2023/10/26 09:20:20;;;;;;;4.27;1.57;;;;;;;18.46;68.05;98470.22;5028941;28;20481;-63
2023/10/26 09:22:45;;;;;;;3.73;1.40;;;;;;;18.44;67.95;98472.72;5072169;28;20185;-63
2023/10/26 09:25:12;;;;;;;4.50;1.53;;;;;;;18.46;68.25;98478.81;5070973;28;20417;-63
2023/10/26 09:27:38;;;;;;;4.27;1.57;;;;;;;18.46;68.07;98475.16;5052277;28;20233;-63
2023/10/26 09:30:06;;;;;;;5.40;1.57;;;;;;;18.44;67.89;98481.28;5054228;28;20548;-63
2023/10/26 09:32:36;;;;;;;6.23;1.60;;;;;;;18.43;67.88;98476.81;5071727;28;20483;-63
2023/10/26 09:35:03;;;;;;;7.60;1.50;;;;;;;18.46;67.92;98487.38;5071314;28;20532;-63
2023/10/26 09:37:29;;;;;;;6.57;1.30;;;;;;;18.44;68.28;98495.56;5074150;28;20417;-63
2023/10/26 09:39:54;;;;;;;5.20;1.30;;;;;;;18.46;67.88;98504.53;5074581;28;20495;-62
2023/10/26 09:42:20;;;;;;;4.23;1.47;;;;;;;18.44;68.53;98491.88;5056780;28;20434;-63
2023/10/26 09:44:46;;;;;;;9.60;1.60;;;;;;;18.45;68.19;98496.38;5052803;28;20176;-63
2023/10/26 09:47:12;;;;;;;5.53;1.40;;;;;;;18.45;67.97;98490.66;5060791;28;20210;-63
2023/10/26 09:49:37;;;;;;;5.80;1.33;;;;;;;18.42;68.44;98486.59;5072767;28;20461;-63
2023/10/26 09:52:03;;;;;;;4.87;1.43;;;;;;;18.45;68.16;98490.66;5072508;28;20182;-63
2023/10/26 09:54:37;;;;;;;5.50;1.47;;;;;;;18.43;68.10;98488.25;5071489;28;20178;-63
2023/10/26 09:57:21;;;;;;;4.40;1.10;;;;;;;18.45;68.31;98497.19;5055799;28;20178;-63
2023/10/26 09:59:51;;;;;;;5.13;1.20;;;;;;;18.42;67.91;98506.59;5071779;28;20521;-63
2023/10/26 10:02:17;;;;;;;5.10;1.00;;;;;;;18.42;68.40;98495.16;5037548;28;20498;-63
2023/10/26 10:04:43;;;;;;;4.90;1.17;;;;;;;18.43;68.21;98511.09;5071505;28;20463;-63
2023/10/26 10:07:09;;;;;;;3.37;1.13;;;;;;;18.44;68.04;98520.47;5071973;28;20501;-63
2023/10/26 10:10:04;;;;;;;7.27;1.50;;;;;;;18.45;67.85;98505.75;5071761;28;20468;-63
2023/10/26 10:12:30;;;;;;;3.83;1.30;;;;;;;18.45;68.47;98499.22;5072184;28;20177;-63
2023/10/26 10:14:57;;;;;;;5.90;1.50;;;;;;;18.44;68.12;98501.28;5062129;28;20462;-63
2023/10/26 10:17:45;;;;;;;5.90;1.23;;;;;;;18.45;68.15;98505.75;5061292;28;20295;-63
2023/10/26 10:20:14;;;;;;;2.37;1.20;;;;;;;18.44;68.30;98507.00;5069987;28;20468;-63
2023/10/26 10:22:48;;;;;;;2.70;1.10;;;;;;;18.44;68.39;98497.59;5070763;28;20564;-63
2023/10/26 10:25:17;;;;;;;5.10;1.87;;;;;;;18.46;68.35;98495.16;5070987;28;20823;-63
2023/10/26 10:27:49;;;;;;;6.37;1.30;;;;;;;18.45;68.19;98482.91;5070944;28;20409;-64
2023/10/26 10:30:23;;;;;;;5.33;1.30;;;;;;;18.44;68.29;98484.16;5062841;28;20564;-63
2023/10/26 10:32:49;;;;;;;3.60;1.20;;;;;;;18.45;68.43;98470.66;5051013;28;20457;-63
2023/10/26 10:35:21;;;;;;;5.73;1.17;;;;;;;18.45;68.63;98476.38;5066249;28;20533;-63
2023/10/26 10:38:10;;;;;;;3.33;1.20;;;;;;;18.45;68.26;98474.31;5071771;28;20416;-63
2023/10/26 10:40:38;;;;;;;3.30;1.13;;;;;;;18.45;68.26;98460.03;5070514;28;20437;-63
2023/10/26 10:43:04;;;;;;;4.37;1.83;;;;;;;18.46;68.25;98463.72;5070787;28;20421;-63
2023/10/26 10:45:29;;;;;;;6.43;1.47;;;;;;;18.44;68.25;98451.88;5048697;28;20428;-63
2023/10/26 10:47:55;;;;;;;4.00;1.30;;;;;;;18.47;68.23;98449.00;5051308;28;20172;-63
2023/10/26 10:50:24;;;;;;;5.67;1.20;;;;;;;18.47;67.84;98448.19;5066218;28;20211;-63
2023/10/26 10:52:53;;;;;;;4.57;1.30;;;;;;;18.46;68.12;98427.38;5070328;28;20320;-63
2023/10/26 10:55:19;;;;;;;5.10;1.23;;;;;;;18.46;68.00;98424.50;5069288;28;21316;-63
2023/10/26 10:58:01;;;;;;;2.03;0.80;;;;;;;18.49;68.02;98412.25;5070933;28;20911;-62
2023/10/26 11:00:28;;;;;;;3.80;1.60;;;;;;;18.47;68.11;98408.97;5071367;28;21040;-63
2023/10/26 11:02:57;;;;;;;3.97;1.20;;;;;;;18.48;68.17;98401.22;5071270;28;20480;-63
2023/10/26 11:05:34;;;;;;;2.67;1.10;;;;;;;18.49;67.84;98417.97;5069637;28;20847;-62
2023/10/26 11:07:59;;;;;;;4.00;1.23;;;;;;;18.50;68.03;98410.19;5071144;28;20496;-63
2023/10/26 11:10:25;;;;;;;4.60;1.10;;;;;;;18.49;67.87;98400.81;5069652;28;20678;-63
2023/10/26 11:12:50;;;;;;;5.60;1.20;;;;;;;18.49;67.94;98397.97;5070197;28;20191;-63
2023/10/26 11:15:16;;;;;;;3.70;1.40;;;;;;;18.48;68.46;98390.63;5049617;28;20254;-63
2023/10/26 11:17:41;;;;;;;4.93;1.27;;;;;;;18.49;68.10;98383.66;5068808;28;20174;-63
2023/10/26 11:20:33;;;;;;;5.10;1.40;;;;;;;18.50;68.01;98388.13;5066793;28;20268;-63
2023/10/26 11:22:59;;;;;;;3.63;1.07;;;;;;;18.50;67.97;98381.59;5067766;28;20264;-63
2023/10/26 11:25:27;;;;;;;5.47;1.50;;;;;;;18.49;68.13;98375.09;5068847;28;20881;-63
2023/10/26 11:27:52;;;;;;;5.10;1.47;;;;;;;18.51;67.91;98368.97;5051071;28;20233;-63
2023/10/26 11:30:18;;;;;;;4.20;1.20;;;;;;;18.50;67.98;98370.16;5065611;28;20888;-63